Time;durP1;ratioP1;P1;durP2;ratioP2;P2;SDS_P1;SDS_P2;PMS_P1;PMS_P2;Temp;Humidity;BMP_temperature;BMP_pressure;BME280_temperature;BME280_humidity;BME280_pressure;Samples;Min_cycle;Max_cycle;Signal;HPM_P1;HPM_P2
2021/12/03 00:01:32;;;;;;;12.95;4.80;;;2.50;77.70;;;;;;5030029;28;20473;-71
2021/12/03 00:03:58;;;;;;;10.32;4.60;;;2.50;77.70;;;;;;5028774;28;20057;-71
2021/12/03 00:06:24;;;;;;;10.10;4.90;;;2.40;77.60;;;;;;5025636;28;20542;-71
2021/12/03 00:08:50;;;;;;;10.20;4.90;;;2.40;77.70;;;;;;5027891;28;20084;-71
2021/12/03 00:11:17;;;;;;;11.70;4.90;;;2.40;77.80;;;;;;5026394;28;20090;-72
2021/12/03 00:13:43;;;;;;;8.32;4.60;;;2.40;77.80;;;;;;5029432;28;20029;-71
2021/12/03 00:16:11;;;;;;;9.25;4.53;;;2.40;77.70;;;;;;5029588;28;20034;-72
2021/12/03 00:18:37;;;;;;;8.18;5.57;;;2.40;77.70;;;;;;5029601;28;20033;-71
2021/12/03 00:21:06;;;;;;;8.30;4.32;;;2.40;77.80;;;;;;5031102;28;20376;-71
2021/12/03 00:23:33;;;;;;;7.45;4.88;;;2.40;77.90;;;;;;5040117;28;20034;-71
2021/12/03 00:26:00;;;;;;;8.55;5.55;;;2.30;77.80;;;;;;5030319;28;20755;-67
2021/12/03 00:28:30;;;;;;;6.75;4.88;;;2.40;77.90;;;;;;5039457;28;20026;-67
2021/12/03 00:30:56;;;;;;;9.10;4.85;;;2.30;77.90;;;;;;5027916;28;20034;-67
2021/12/03 00:33:22;;;;;;;7.80;5.18;;;2.30;78.00;;;;;;5029404;28;20029;-67
2021/12/03 00:35:48;;;;;;;8.05;5.30;;;2.30;78.10;;;;;;5029290;28;20037;-67
2021/12/03 00:38:15;;;;;;;6.22;4.75;;;2.30;78.10;;;;;;5029625;28;20113;-67
2021/12/03 00:40:41;;;;;;;9.18;5.78;;;2.30;78.20;;;;;;5011090;28;20431;-71
2021/12/03 00:43:08;;;;;;;8.57;5.07;;;2.20;78.40;;;;;;5028342;28;20272;-67
2021/12/03 00:45:34;;;;;;;8.07;5.20;;;2.20;78.60;;;;;;5028398;28;20133;-67
2021/12/03 00:48:01;;;;;;;9.63;4.95;;;2.20;78.90;;;;;;5027912;28;20380;-67
2021/12/03 00:50:28;;;;;;;9.23;5.22;;;2.20;79.10;;;;;;5029209;28;20028;-67
2021/12/03 00:52:54;;;;;;;10.55;6.28;;;2.20;79.40;;;;;;5029762;28;20388;-67
2021/12/03 00:55:22;;;;;;;10.00;5.82;;;2.30;79.80;;;;;;5028740;28;20708;-67
2021/12/03 00:57:48;;;;;;;8.02;5.70;;;2.30;80.20;;;;;;5028796;28;20033;-67
2021/12/03 01:00:18;;;;;;;9.82;5.05;;;2.30;80.50;;;;;;5028369;28;20061;-67
2021/12/03 01:02:45;;;;;;;8.40;5.75;;;2.30;80.80;;;;;;5018325;28;20129;-67
2021/12/03 01:05:11;;;;;;;10.00;6.15;;;2.30;80.90;;;;;;5028218;28;20400;-67
2021/12/03 01:07:37;;;;;;;10.60;5.88;;;2.40;81.00;;;;;;5029247;28;20026;-68
2021/12/03 01:10:05;;;;;;;8.60;6.05;;;2.30;81.00;;;;;;5027737;28;20060;-67
2021/12/03 01:12:30;;;;;;;11.85;6.47;;;2.40;81.20;;;;;;5027788;28;20432;-67
2021/12/03 01:14:56;;;;;;;8.98;5.72;;;2.40;81.20;;;;;;5027396;28;20546;-67
2021/12/03 01:17:22;;;;;;;11.55;6.25;;;2.40;81.30;;;;;;5029147;28;20499;-67
2021/12/03 01:19:49;;;;;;;10.48;6.47;;;2.40;81.40;;;;;;5020926;28;20411;-68
2021/12/03 01:22:15;;;;;;;9.77;6.15;;;2.40;81.60;;;;;;5029371;28;20032;-67
2021/12/03 01:24:40;;;;;;;9.65;5.90;;;2.40;81.80;;;;;;5028655;28;20030;-68
2021/12/03 01:27:06;;;;;;;8.90;6.05;;;2.40;82.00;;;;;;5041213;28;20068;-67
2021/12/03 01:29:35;;;;;;;9.45;5.95;;;2.40;82.30;;;;;;5032955;28;20091;-67
2021/12/03 01:32:00;;;;;;;10.32;6.03;;;2.40;82.20;;;;;;5032608;28;20036;-67
2021/12/03 01:34:32;;;;;;;9.27;6.13;;;2.40;82.00;;;;;;5033225;28;20108;-67
2021/12/03 01:36:57;;;;;;;9.18;6.75;;;2.40;82.00;;;;;;5019899;28;20048;-67
2021/12/03 01:39:30;;;;;;;11.70;6.50;;;2.40;82.00;;;;;;5026080;28;20700;-67
2021/12/03 01:41:55;;;;;;;11.52;8.75;;;2.40;82.00;;;;;;5031010;28;20044;-67
2021/12/03 01:44:21;;;;;;;10.23;6.32;;;2.40;82.10;;;;;;5016655;28;20404;-67
2021/12/03 01:46:47;;;;;;;8.52;5.85;;;2.40;82.10;;;;;;5011965;28;20022;-67
2021/12/03 01:49:14;;;;;;;8.73;6.22;;;2.40;82.10;;;;;;5011712;28;20034;-67
2021/12/03 01:51:41;;;;;;;10.85;6.35;;;2.40;82.10;;;;;;5027079;28;20377;-68
2021/12/03 01:54:07;;;;;;;8.93;5.97;;;2.40;82.20;;;;;;5019684;28;20616;-72
2021/12/03 01:56:33;;;;;;;10.95;6.28;;;2.40;82.30;;;;;;5014714;28;20104;-72
2021/12/03 01:58:58;;;;;;;11.23;7.15;;;2.40;82.40;;;;;;5010334;28;20401;-72
2021/12/03 02:01:27;;;;;;;10.63;7.28;;;2.40;82.50;;;;;;5013749;28;20088;-71
2021/12/03 02:03:57;;;;;;;9.35;6.80;;;2.40;82.90;;;;;;5030591;28;20054;-71
2021/12/03 02:06:24;;;;;;;9.18;6.50;;;2.40;83.00;;;;;;5029158;28;20037;-72
2021/12/03 02:08:51;;;;;;;10.10;6.90;;;2.40;82.90;;;;;;5030745;28;20022;-72
2021/12/03 02:11:17;;;;;;;8.50;6.60;;;2.40;83.00;;;;;;5026261;28;20476;-71
2021/12/03 02:13:43;;;;;;;9.93;6.60;;;2.40;83.10;;;;;;5030932;28;20029;-71
2021/12/03 02:16:09;;;;;;;10.75;7.10;;;2.40;83.00;;;;;;5030404;28;20098;-67
2021/12/03 02:18:35;;;;;;;9.77;7.30;;;2.50;83.30;;;;;;5030483;28;20637;-67
2021/12/03 02:21:03;;;;;;;9.40;6.43;;;2.40;83.30;;;;;;5030082;28;20072;-67
2021/12/03 02:23:30;;;;;;;8.80;6.88;;;2.40;83.30;;;;;;5030453;28;20037;-67
2021/12/03 02:25:56;;;;;;;10.90;7.57;;;2.50;83.40;;;;;;5028928;28;20384;-67
2021/12/03 02:28:27;;;;;;;12.40;7.63;;;2.50;83.50;;;;;;5019319;28;20041;-67
2021/12/03 02:30:53;;;;;;;13.38;9.32;;;2.50;83.90;;;;;;5027840;28;20481;-68
2021/12/03 02:33:19;;;;;;;12.65;9.10;;;2.50;84.00;;;;;;5011769;28;20053;-68
2021/12/03 02:35:46;;;;;;;14.35;9.43;;;2.50;84.10;;;;;;5010950;28;20037;-68
2021/12/03 02:38:14;;;;;;;12.88;9.60;;;2.50;84.10;;;;;;5010724;28;20037;-68
2021/12/03 02:40:41;;;;;;;16.55;8.75;;;2.50;84.40;;;;;;5009985;28;20077;-68
2021/12/03 02:43:07;;;;;;;15.32;8.82;;;2.50;84.40;;;;;;5021550;28;20042;-68
2021/12/03 02:45:33;;;;;;;19.27;10.60;;;2.50;84.60;;;;;;5010114;28;20041;-67
2021/12/03 02:47:59;;;;;;;18.27;9.88;;;2.50;84.70;;;;;;5010535;28;20026;-71
2021/12/03 02:50:26;;;;;;;11.98;9.20;;;2.50;84.90;;;;;;5010108;28;20112;-72
2021/12/03 02:52:53;;;;;;;15.90;10.75;;;2.50;84.80;;;;;;5024954;28;20049;-72
2021/12/03 02:55:20;;;;;;;13.95;9.68;;;2.50;85.20;;;;;;5012415;28;20150;-72
2021/12/03 02:57:45;;;;;;;16.42;9.57;;;2.50;85.10;;;;;;5024282;28;20404;-72
2021/12/03 03:00:15;;;;;;;15.50;9.88;;;2.50;85.00;;;;;;5009632;28;20034;-72
2021/12/03 03:02:42;;;;;;;12.60;9.43;;;2.50;85.20;;;;;;5009267;28;20038;-72
2021/12/03 03:05:10;;;;;;;16.38;9.75;;;2.50;85.20;;;;;;5011569;28;20583;-72
2021/12/03 03:07:37;;;;;;;16.48;10.82;;;2.60;85.20;;;;;;5011386;28;20021;-72
2021/12/03 03:10:08;;;;;;;13.43;10.15;;;2.60;85.30;;;;;;5025171;28;20033;-68
2021/12/03 03:12:34;;;;;;;16.27;10.00;;;2.60;85.30;;;;;;5010998;28;20048;-67
2021/12/03 03:15:00;;;;;;;14.35;10.10;;;2.60;85.40;;;;;;5010635;28;20061;-68
2021/12/03 03:17:29;;;;;;;19.33;11.38;;;2.60;85.30;;;;;;5010049;28;20116;-67
2021/12/03 03:19:56;;;;;;;16.63;12.15;;;2.70;85.40;;;;;;5010531;28;20072;-68
2021/12/03 03:22:22;;;;;;;12.60;9.27;;;2.70;85.40;;;;;;5019558;28;20465;-67
2021/12/03 03:24:50;;;;;;;12.77;9.43;;;2.60;85.30;;;;;;5008458;28;20448;-67
2021/12/03 03:27:16;;;;;;;15.07;9.90;;;2.60;85.40;;;;;;5010350;28;20891;-67
2021/12/03 03:29:44;;;;;;;13.32;9.65;;;2.60;85.40;;;;;;5009711;28;20108;-67
2021/12/03 03:32:11;;;;;;;15.85;10.15;;;2.60;85.40;;;;;;5011234;28;20034;-67
2021/12/03 03:34:37;;;;;;;11.15;9.32;;;2.60;85.50;;;;;;5024888;28;20029;-67
2021/12/03 03:37:03;;;;;;;17.05;10.40;;;2.60;85.60;;;;;;5030826;28;20476;-67
2021/12/03 03:39:29;;;;;;;18.35;11.48;;;2.60;85.50;;;;;;5009977;28;20054;-67
2021/12/03 03:41:55;;;;;;;13.63;10.23;;;2.60;85.70;;;;;;5011309;28;20042;-67
2021/12/03 03:44:21;;;;;;;17.55;10.73;;;2.70;85.80;;;;;;5021348;28;20465;-67
2021/12/03 03:46:50;;;;;;;17.95;11.23;;;2.60;85.80;;;;;;5029437;28;20386;-67
2021/12/03 03:49:17;;;;;;;15.90;11.43;;;2.70;85.90;;;;;;5026959;28;20064;-68
2021/12/03 03:51:43;;;;;;;19.52;13.80;;;2.70;85.80;;;;;;5008432;28;20018;-67
2021/12/03 03:54:09;;;;;;;22.50;15.25;;;2.60;86.10;;;;;;5009688;28;20109;-68
2021/12/03 03:56:35;;;;;;;24.80;16.50;;;2.60;86.40;;;;;;5009198;28;20559;-67
2021/12/03 03:59:01;;;;;;;20.30;13.27;;;2.60;86.50;;;;;;5008892;28;20034;-68
2021/12/03 04:01:26;;;;;;;26.40;15.85;;;2.60;86.40;;;;;;5026174;28;20037;-67
2021/12/03 04:03:52;;;;;;;23.35;16.23;;;2.60;86.50;;;;;;5015535;28;20409;-67
2021/12/03 04:06:19;;;;;;;35.40;19.17;;;2.60;86.70;;;;;;5024966;28;20040;-67
2021/12/03 04:08:46;;;;;;;23.33;16.52;;;2.60;87.00;;;;;;5026789;28;20022;-67
2021/12/03 04:11:15;;;;;;;20.50;14.93;;;2.60;86.90;;;;;;5023309;28;20026;-67
2021/12/03 04:13:41;;;;;;;18.40;14.70;;;2.60;86.90;;;;;;5029511;28;20033;-67
2021/12/03 04:16:07;;;;;;;26.02;18.45;;;2.60;86.90;;;;;;5027933;28;20040;-67
2021/12/03 04:18:32;;;;;;;27.00;17.08;;;2.60;87.20;;;;;;5029590;28;20029;-72
2021/12/03 04:20:58;;;;;;;28.80;18.27;;;2.70;87.30;;;;;;5028990;28;20981;-72
2021/12/03 04:23:24;;;;;;;25.40;17.40;;;2.70;87.40;;;;;;5029785;28;20112;-72
2021/12/03 04:25:50;;;;;;;29.90;19.33;;;2.70;87.40;;;;;;5026176;28;20037;-71
2021/12/03 04:28:18;;;;;;;31.33;20.50;;;2.70;87.40;;;;;;5010246;28;20113;-72
2021/12/03 04:30:45;;;;;;;29.05;20.25;;;2.80;87.50;;;;;;5023847;28;20116;-71
2021/12/03 04:33:11;;;;;;;34.75;21.55;;;2.80;87.50;;;;;;5029655;28;20099;-71
2021/12/03 04:35:37;;;;;;;32.22;22.10;;;2.70;87.40;;;;;;5028954;28;20030;-71
2021/12/03 04:38:05;;;;;;;30.17;21.08;;;2.70;87.50;;;;;;5028120;28;20032;-72
2021/12/03 04:40:31;;;;;;;30.75;21.67;;;2.70;87.70;;;;;;5027918;28;20037;-67
2021/12/03 04:42:57;;;;;;;35.10;22.00;;;2.70;87.80;;;;;;5030168;28;20104;-66
2021/12/03 04:45:25;;;;;;;30.92;21.23;;;2.70;87.90;;;;;;5029414;28;20022;-67
2021/12/03 04:47:53;;;;;;;30.13;19.98;;;2.70;87.90;;;;;;5029694;28;20029;-66
2021/12/03 04:50:21;;;;;;;33.83;22.38;;;2.70;87.90;;;;;;5026266;28;20095;-67
2021/12/03 04:52:47;;;;;;;34.95;22.45;;;2.80;87.90;;;;;;5028200;28;20376;-66
2021/12/03 04:55:13;;;;;;;38.92;23.40;;;2.80;87.90;;;;;;5027942;28;20029;-66
2021/12/03 04:57:43;;;;;;;38.72;23.80;;;2.80;87.90;;;;;;5029015;28;20504;-67
2021/12/03 05:00:14;;;;;;;37.40;22.73;;;2.80;88.00;;;;;;5024145;28;20141;-67
2021/12/03 05:02:40;;;;;;;45.63;26.10;;;2.80;88.10;;;;;;5030842;28;20403;-67
2021/12/03 05:05:06;;;;;;;45.65;26.35;;;2.80;88.20;;;;;;5031649;28;20037;-67
2021/12/03 05:10:06;;;;;;;50.38;27.63;;;2.80;88.30;;;;;;5032358;28;20028;-67
2021/12/03 05:12:32;;;;;;;51.05;27.65;;;2.80;88.30;;;;;;5032255;28;20034;-67
2021/12/03 05:14:57;;;;;;;54.97;29.92;;;2.80;88.30;;;;;;5024879;28;20029;-67
2021/12/03 05:17:29;;;;;;;60.95;29.85;;;2.80;88.50;;;;;;5026445;28;20033;-67
2021/12/03 05:19:55;;;;;;;66.47;31.13;;;2.80;88.50;;;;;;5013468;28;20033;-67
2021/12/03 05:22:21;;;;;;;61.40;29.52;;;2.80;88.50;;;;;;5025561;28;20456;-72
2021/12/03 05:24:47;;;;;;;64.45;32.33;;;2.80;88.70;;;;;;5010464;28;20030;-73
2021/12/03 05:27:19;;;;;;;92.13;37.60;;;2.80;88.80;;;;;;5012696;28;20036;-72
2021/12/03 05:29:46;;;;;;;68.83;34.43;;;2.80;89.30;;;;;;5031304;28;20034;-72
2021/12/03 05:32:12;;;;;;;70.40;32.80;;;2.80;89.20;;;;;;5011786;28;20038;-72
2021/12/03 05:34:38;;;;;;;72.13;32.78;;;2.80;89.30;;;;;;5025117;28;20037;-72
2021/12/03 05:37:06;;;;;;;73.65;33.35;;;2.80;89.30;;;;;;5030090;28;20391;-72
2021/12/03 05:39:33;;;;;;;68.60;32.08;;;2.80;89.30;;;;;;5031901;28;20037;-72
2021/12/03 05:41:59;;;;;;;71.10;33.40;;;2.80;89.30;;;;;;5029794;28;20039;-72
2021/12/03 05:44:25;;;;;;;72.40;32.47;;;2.80;89.40;;;;;;5032133;28;20101;-72
2021/12/03 05:46:51;;;;;;;72.05;32.60;;;2.80;89.30;;;;;;5031277;28;20535;-72
2021/12/03 05:49:16;;;;;;;70.70;33.95;;;2.90;89.40;;;;;;5039405;28;20480;-72
2021/12/03 05:51:43;;;;;;;74.95;33.55;;;2.90;89.30;;;;;;5030833;28;20029;-73
2021/12/03 05:54:09;;;;;;;62.92;31.30;;;2.90;89.40;;;;;;5030240;28;20044;-73
2021/12/03 05:56:35;;;;;;;66.57;31.90;;;2.90;89.30;;;;;;5031795;28;20120;-73
2021/12/03 05:59:01;;;;;;;67.13;31.98;;;2.90;89.30;;;;;;5031454;28;20037;-73
2021/12/03 06:01:27;;;;;;;74.70;33.25;;;3.00;89.90;;;;;;5030451;28;20048;-72
2021/12/03 06:03:53;;;;;;;64.70;33.10;;;3.00;89.30;;;;;;5031321;28;20043;-73
2021/12/03 06:06:21;;;;;;;79.65;37.40;;;3.00;89.30;;;;;;5030208;28;20033;-67
2021/12/03 06:08:50;;;;;;;78.18;36.92;;;3.00;89.40;;;;;;5022842;28;20026;-67
2021/12/03 06:11:16;;;;;;;74.35;35.30;;;3.00;89.40;;;;;;5031696;28;20116;-68
2021/12/03 06:13:42;;;;;;;70.18;35.38;;;3.00;89.40;;;;;;5022924;28;20022;-67
2021/12/03 06:16:17;;;;;;;83.10;37.45;;;3.00;89.40;;;;;;5027400;28;20111;-67
2021/12/03 06:18:43;;;;;;;77.82;37.17;;;3.10;89.50;;;;;;5010258;28;20039;-73
2021/12/03 06:21:12;;;;;;;74.78;35.70;;;3.10;89.50;;;;;;5030808;28;20526;-73
2021/12/03 06:23:39;;;;;;;82.28;37.85;;;3.10;89.50;;;;;;5030622;28;20034;-73
2021/12/03 06:26:09;;;;;;;80.35;37.78;;;3.10;89.60;;;;;;5025574;28;20033;-73
2021/12/03 06:28:37;;;;;;;79.20;38.80;;;3.10;89.60;;;;;;5031267;28;20079;-73
2021/12/03 06:31:04;;;;;;;73.82;35.53;;;3.10;89.60;;;;;;5031552;28;20108;-73
2021/12/03 06:33:30;;;;;;;78.50;37.38;;;3.10;89.50;;;;;;5031461;28;20367;-73
2021/12/03 06:35:56;;;;;;;78.25;36.15;;;3.10;89.60;;;;;;5029861;28;20476;-73
2021/12/03 06:38:24;;;;;;;93.80;42.20;;;3.10;89.70;;;;;;5030269;28;20499;-67
2021/12/03 06:43:40;;;;;;;77.88;36.92;;;3.10;89.70;;;;;;5030131;28;20033;-67
2021/12/03 06:46:06;;;;;;;73.97;34.45;;;3.20;89.70;;;;;;5009865;28;20033;-67
2021/12/03 06:48:32;;;;;;;75.95;35.47;;;3.20;89.70;;;;;;5010984;28;20101;-67
2021/12/03 06:50:58;;;;;;;77.22;36.30;;;3.20;89.70;;;;;;5015574;28;20476;-68
2021/12/03 06:53:38;;;;;;;66.60;33.40;;;3.20;89.70;;;;;;5040097;28;20036;-67
2021/12/03 06:56:08;;;;;;;77.43;37.15;;;3.20;89.60;;;;;;5031352;28;20029;-67
2021/12/03 06:58:34;;;;;;;78.97;37.85;;;3.20;89.60;;;;;;5028704;28;20076;-68
2021/12/03 07:00:59;;;;;;;73.88;34.03;;;3.30;89.70;;;;;;5014155;28;20107;-68
2021/12/03 07:03:25;;;;;;;79.97;37.50;;;3.30;89.80;;;;;;5030347;28;20053;-68
2021/12/03 07:05:51;;;;;;;71.72;34.42;;;3.30;89.90;;;;;;5028586;28;20041;-68
2021/12/03 07:08:17;;;;;;;68.85;32.65;;;3.30;89.90;;;;;;5030196;28;20036;-68
2021/12/03 07:10:44;;;;;;;68.95;32.55;;;3.30;90.00;;;;;;5028265;28;20100;-68
2021/12/03 07:13:10;;;;;;;78.03;33.20;;;3.30;89.90;;;;;;5014874;28;20029;-68
2021/12/03 07:15:35;;;;;;;60.78;29.48;;;3.30;89.90;;;;;;5029345;28;20029;-68
2021/12/03 07:18:02;;;;;;;54.47;28.38;;;3.30;89.90;;;;;;5020417;28;20128;-68
2021/12/03 07:20:28;;;;;;;65.38;29.02;;;3.40;89.90;;;;;;5022419;28;20038;-73
2021/12/03 07:22:54;;;;;;;55.58;26.90;;;3.40;89.70;;;;;;5027589;28;20120;-73
2021/12/03 07:25:20;;;;;;;63.40;28.42;;;3.40;89.60;;;;;;5010305;28;20037;-74
2021/12/03 07:27:46;;;;;;;56.15;26.60;;;3.40;89.60;;;;;;5029303;28;20037;-73
2021/12/03 07:30:14;;;;;;;55.85;28.55;;;3.40;89.50;;;;;;5029686;28;20055;-73
2021/12/03 07:32:40;;;;;;;51.50;24.33;;;3.40;89.50;;;;;;5029284;28;20046;-68
2021/12/03 07:35:07;;;;;;;45.53;24.40;;;3.40;89.40;;;;;;5019972;28;20392;-68
2021/12/03 07:37:33;;;;;;;53.00;25.55;;;3.40;89.40;;;;;;5029047;28;20471;-68
2021/12/03 07:40:05;;;;;;;44.45;22.88;;;3.40;89.40;;;;;;5029196;28;20021;-68
2021/12/03 07:42:33;;;;;;;47.17;21.23;;;3.40;89.40;;;;;;5045395;28;20026;-68
2021/12/03 07:45:00;;;;;;;40.67;20.45;;;3.40;89.20;;;;;;5030281;28;20487;-68
2021/12/03 07:47:25;;;;;;;43.22;19.30;;;3.40;89.20;;;;;;5030435;28;20036;-68
2021/12/03 07:49:55;;;;;;;36.30;18.20;;;3.40;89.20;;;;;;5027189;28;20401;-67
2021/12/03 07:52:21;;;;;;;42.08;18.48;;;3.40;89.10;;;;;;5017890;28;20017;-68
2021/12/03 07:54:47;;;;;;;33.35;17.88;;;3.40;89.00;;;;;;5028582;28;20094;-73
2021/12/03 07:57:14;;;;;;;41.35;16.40;;;3.40;88.70;;;;;;5031511;28;20087;-72
2021/12/03 07:59:40;;;;;;;38.83;16.80;;;3.40;88.60;;;;;;5036731;28;20041;-73
2021/12/03 08:02:05;;;;;;;32.13;14.75;;;3.40;88.30;;;;;;5047689;28;20056;-73
2021/12/03 08:04:31;;;;;;;31.13;13.82;;;3.40;88.00;;;;;;5029695;28;20072;-73
2021/12/03 08:06:59;;;;;;;27.48;12.43;;;3.40;87.80;;;;;;5027204;28;20350;-73
2021/12/03 08:09:25;;;;;;;40.33;16.13;;;3.40;87.50;;;;;;5029223;28;20025;-73
2021/12/03 08:11:50;;;;;;;24.00;11.52;;;3.50;87.40;;;;;;5028182;28;20036;-67
2021/12/03 08:14:16;;;;;;;23.98;11.55;;;3.40;87.30;;;;;;5016646;28;20044;-67
2021/12/03 08:16:45;;;;;;;29.98;11.15;;;3.50;87.00;;;;;;5010595;28;20496;-68
2021/12/03 08:19:11;;;;;;;22.38;9.73;;;3.50;86.30;;;;;;5024457;28;20048;-73
2021/12/03 08:21:37;;;;;;;21.42;9.40;;;3.50;85.80;;;;;;5027582;28;20034;-73
2021/12/03 08:24:03;;;;;;;26.00;10.65;;;3.50;85.50;;;;;;5028114;28;20133;-73
2021/12/03 08:26:30;;;;;;;18.75;8.40;;;3.50;85.30;;;;;;5026869;28;20029;-73
2021/12/03 08:28:55;;;;;;;21.20;7.95;;;3.50;84.80;;;;;;5031971;28;20032;-73
2021/12/03 08:31:21;;;;;;;23.80;7.97;;;3.50;84.70;;;;;;5028461;28;20364;-73
2021/12/03 08:33:48;;;;;;;15.75;7.22;;;3.50;84.40;;;;;;5029284;28;20032;-73
2021/12/03 08:36:14;;;;;;;23.40;7.88;;;3.50;84.60;;;;;;5031987;28;20072;-73
2021/12/03 08:38:41;;;;;;;15.48;6.72;;;3.50;84.00;;;;;;5032609;28;20087;-73
2021/12/03 08:41:09;;;;;;;17.33;6.20;;;3.50;84.10;;;;;;5027549;28;20116;-73
2021/12/03 08:43:34;;;;;;;22.52;6.63;;;3.50;84.10;;;;;;5037915;28;20037;-72
2021/12/03 08:46:08;;;;;;;26.45;7.35;;;3.60;83.90;;;;;;5031484;28;20041;-72
2021/12/03 08:48:38;;;;;;;18.33;6.95;;;3.60;83.40;;;;;;5033493;28;20116;-78
2021/12/03 08:56:14;;;;;;;17.35;6.50;;;3.60;83.20;;;;;;5033910;28;20052;-79
2021/12/03 08:58:40;;;;;;;20.08;7.10;;;3.60;83.20;;;;;;5030913;28;20030;-75
2021/12/03 09:01:08;;;;;;;16.83;6.05;;;3.60;83.60;;;;;;5032042;28;20116;-77
2021/12/03 09:03:34;;;;;;;17.20;5.60;;;3.70;83.20;;;;;;5034085;28;20411;-73
2021/12/03 09:06:00;;;;;;;14.65;5.88;;;3.70;83.10;;;;;;5032970;28;20037;-71
2021/12/03 09:08:26;;;;;;;11.88;5.25;;;3.70;83.20;;;;;;5029540;28;20496;-71
2021/12/03 09:10:51;;;;;;;18.83;7.00;;;3.80;82.60;;;;;;5018338;28;20049;-75
2021/12/03 09:13:17;;;;;;;16.60;6.13;;;3.80;82.40;;;;;;5031988;28;20065;-73
2021/12/03 09:16:06;;;;;;;18.15;5.65;;;3.80;82.30;;;;;;5031151;28;20056;-73
2021/12/03 09:18:37;;;;;;;20.50;6.97;;;3.80;82.50;;;;;;5017050;28;20037;-73
2021/12/03 09:21:07;;;;;;;14.68;6.40;;;3.80;82.60;;;;;;5047065;28;20053;-73
2021/12/03 09:23:44;;;;;;;14.32;5.80;;;3.90;82.60;;;;;;5030762;28;20059;-73
2021/12/03 09:26:13;;;;;;;15.20;5.70;;;3.80;82.60;;;;;;5030705;28;20029;-73
2021/12/03 09:28:42;;;;;;;15.25;6.10;;;3.90;82.60;;;;;;5032329;28;20033;-73
2021/12/03 09:31:10;;;;;;;16.77;5.78;;;3.90;82.50;;;;;;5031813;28;20097;-73
2021/12/03 09:33:37;;;;;;;14.48;6.97;;;3.90;82.50;;;;;;5031091;28;20033;-73
2021/12/03 09:36:04;;;;;;;16.33;6.40;;;3.90;82.40;;;;;;5029945;28;20126;-73
2021/12/03 09:38:33;;;;;;;14.57;6.07;;;3.90;82.40;;;;;;5013799;28;20065;-73
2021/12/03 09:41:08;;;;;;;16.23;5.80;;;3.90;82.00;;;;;;5031094;28;20388;-73
2021/12/03 09:43:37;;;;;;;15.45;5.88;;;3.90;82.00;;;;;;5030667;28;20044;-73
2021/12/03 09:48:57;;;;;;;15.05;5.93;;;4.00;82.10;;;;;;5030256;28;20415;-73
2021/12/03 09:51:26;;;;;;;20.83;6.35;;;4.00;82.00;;;;;;5031451;28;20104;-73
2021/12/03 09:56:17;;;;;;;19.75;6.00;;;4.00;81.70;;;;;;5026636;28;20044;-68
2021/12/03 10:01:27;;;;;;;21.70;5.95;;;4.00;81.50;;;;;;5029909;28;20053;-68
2021/12/03 10:17:58;;;;;;;13.95;4.07;;;4.10;81.20;;;;;;5030129;28;20033;-68
2021/12/03 10:20:50;;;;;;;20.73;4.32;;;4.10;81.40;;;;;;5027177;28;20025;-73
2021/12/03 10:31:52;;;;;;;14.45;4.28;;;4.10;80.60;;;;;;5025019;28;20459;-68
2021/12/03 10:35:01;;;;;;;15.25;3.90;;;4.20;80.50;;;;;;5023888;28;20034;-68
2021/12/03 10:45:25;;;;;;;18.52;4.25;;;4.20;80.40;;;;;;5026072;28;20060;-68
2021/12/03 10:56:02;;;;;;;13.27;3.97;;;4.20;80.90;;;;;;5025508;28;20099;-68
2021/12/03 10:59:10;;;;;;;18.58;4.38;;;4.30;81.10;;;;;;5020475;28;20028;-67
2021/12/03 11:07:19;;;;;;;14.07;4.95;;;4.30;81.70;;;;;;5015695;28;20482;-68
2021/12/03 11:39:08;;;;;;;17.35;5.85;;;4.40;85.30;;;;;;5017947;28;20132;-73
2021/12/03 13:07:02;;;;;;;17.02;6.07;;;5.10;80.30;;;;;;5025827;28;20530;-68
2021/12/03 14:56:08;;;;;;;8.32;4.53;;;5.20;84.40;;;;;;5027428;28;20071;-67
2021/12/03 14:58:47;;;;;;;6.72;4.60;;;5.10;84.90;;;;;;5028285;28;20043;-67
2021/12/03 15:07:09;;;;;;;8.52;4.03;;;5.10;86.00;;;;;;5034390;28;20102;-73
2021/12/03 15:09:44;;;;;;;16.20;5.55;;;5.00;86.10;;;;;;5028895;28;20037;-73
2021/12/03 15:25:18;;;;;;;8.05;4.90;;;5.10;87.20;;;;;;5024068;28;20072;-67
2021/12/03 15:33:55;;;;;;;7.25;5.32;;;5.00;87.80;;;;;;5016331;28;20405;-68
2021/12/03 15:36:01;;;;;;;10.25;6.07;;;5.00;88.20;;;;;;5029303;28;20025;-68
2021/12/03 15:38:44;;;;;;;7.63;5.68;;;5.00;88.50;;;;;;5040732;28;20107;-67
2021/12/03 15:58:02;;;;;;;7.55;6.00;;;4.90;89.40;;;;;;5027008;28;20111;-67
2021/12/03 16:08:32;;;;;;;9.82;5.95;;;4.90;89.90;;;;;;5017275;28;20151;-68
2021/12/03 16:13:48;;;;;;;10.52;6.72;;;4.90;90.00;;;;;;5027602;28;20033;-68
2021/12/03 16:21:31;;;;;;;8.75;6.38;;;4.90;90.10;;;;;;5057451;28;20476;-68
2021/12/03 16:54:03;;;;;;;7.57;6.60;;;5.00;90.30;;;;;;5019454;28;20117;-67
2021/12/03 16:56:29;;;;;;;9.73;7.07;;;5.00;90.30;;;;;;5021117;28;20033;-67
2021/12/03 16:58:57;;;;;;;9.98;7.10;;;5.00;90.30;;;;;;5024646;28;20137;-68
2021/12/03 17:01:30;;;;;;;9.63;7.30;;;5.00;90.60;;;;;;5009483;28;21830;-67
2021/12/03 17:03:59;;;;;;;9.50;7.20;;;5.00;90.40;;;;;;5022713;28;20107;-68
2021/12/03 17:44:36;;;;;;;10.60;6.82;;;5.20;90.40;;;;;;5028283;28;20679;-71
2021/12/03 17:59:50;;;;;;;7.82;7.13;;;5.20;90.30;;;;;;5025555;28;20128;-72
2021/12/03 18:02:27;;;;;;;7.78;7.03;;;5.20;90.40;;;;;;5029774;28;20037;-72
2021/12/03 18:18:21;;;;;;;6.57;5.97;;;5.30;90.20;;;;;;5030112;28;20087;-68
2021/12/03 18:56:09;;;;;;;7.70;7.00;;;5.30;90.10;;;;;;4977511;28;20122;-67
2021/12/03 18:58:36;;;;;;;8.63;7.93;;;5.40;90.10;;;;;;5014934;28;20041;-72
2021/12/03 19:01:02;;;;;;;9.02;8.27;;;5.40;90.10;;;;;;5026910;28;20030;-72
2021/12/03 19:03:39;;;;;;;9.60;8.80;;;5.40;90.00;;;;;;5028870;28;20037;-72
2021/12/03 19:09:05;;;;;;;10.65;9.65;;;5.40;90.00;;;;;;5035646;28;20500;-71
2021/12/03 19:11:37;;;;;;;11.57;10.48;;;5.30;90.10;;;;;;5025888;28;20026;-67
2021/12/03 19:14:03;;;;;;;12.27;11.18;;;5.30;90.20;;;;;;5028025;28;20035;-67
2021/12/03 19:16:30;;;;;;;12.43;11.32;;;5.30;90.20;;;;;;5029528;28;20400;-67
2021/12/03 19:18:58;;;;;;;12.35;11.32;;;5.40;90.20;;;;;;5027245;28;20067;-67
2021/12/03 19:21:28;;;;;;;13.23;12.02;;;5.40;90.20;;;;;;5028068;28;20536;-68
2021/12/03 19:23:57;;;;;;;12.52;11.43;;;5.40;90.20;;;;;;5028856;28;20519;-68
2021/12/03 19:26:24;;;;;;;12.90;11.80;;;5.40;90.20;;;;;;5026330;28;20139;-68
2021/12/03 19:28:50;;;;;;;12.80;11.70;;;5.40;90.30;;;;;;5025859;28;20393;-68
2021/12/03 19:31:17;;;;;;;12.52;11.32;;;5.40;90.20;;;;;;5025168;28;20579;-68
2021/12/03 19:33:43;;;;;;;12.85;11.73;;;5.40;90.30;;;;;;5037898;28;20078;-68
2021/12/03 19:36:10;;;;;;;12.18;11.10;;;5.30;90.30;;;;;;5026626;28;20478;-69
2021/12/03 19:38:38;;;;;;;11.18;10.27;;;5.40;90.30;;;;;;5023717;28;20033;-68
2021/12/03 19:43:53;;;;;;;12.57;11.35;;;5.40;90.30;;;;;;5023605;28;20036;-68
2021/12/03 19:46:24;;;;;;;14.00;12.63;;;5.40;90.30;;;;;;5021993;28;20124;-72
2021/12/03 19:49:01;;;;;;;13.68;12.48;;;5.40;90.30;;;;;;5023705;28;20030;-72
2021/12/03 19:51:28;;;;;;;11.15;10.18;;;5.40;90.40;;;;;;5026420;28;20029;-72
2021/12/03 19:56:24;;;;;;;11.93;10.88;;;5.40;90.40;;;;;;5025179;28;20129;-68
2021/12/03 19:58:52;;;;;;;11.82;10.73;;;5.40;90.40;;;;;;5013909;28;20578;-72
2021/12/03 20:01:18;;;;;;;11.45;10.45;;;5.40;90.40;;;;;;5025700;28;20456;-72
2021/12/03 20:03:45;;;;;;;14.38;13.02;;;5.40;90.50;;;;;;5024830;28;21867;-68
2021/12/03 20:06:11;;;;;;;10.88;9.98;;;5.40;90.50;;;;;;5028666;28;20041;-69
2021/12/03 20:08:37;;;;;;;11.23;10.23;;;5.40;90.50;;;;;;5031576;28;20834;-72
2021/12/03 20:11:07;;;;;;;11.82;10.82;;;5.40;90.50;;;;;;5021181;28;20536;-72
2021/12/03 20:13:33;;;;;;;13.98;12.55;;;5.40;90.50;;;;;;5034067;28;20128;-72
2021/12/03 20:16:51;;;;;;;11.65;10.55;;;5.40;90.60;;;;;;5027823;28;20040;-72
2021/12/03 20:18:50;;;;;;;13.00;11.77;;;5.40;90.60;;;;;;5020312;28;20373;-72
2021/12/03 20:21:18;;;;;;;12.05;11.00;;;5.40;90.50;;;;;;5031529;28;20094;-72
2021/12/03 20:24:03;;;;;;;12.05;11.02;;;5.40;90.50;;;;;;5025421;28;20536;-72
2021/12/03 20:26:54;;;;;;;11.50;10.40;;;5.40;90.60;;;;;;5032824;28;20025;-72
2021/12/03 20:31:46;;;;;;;12.98;11.85;;;5.40;90.60;;;;;;5028473;28;20511;-66
2021/12/03 20:36:44;;;;;;;11.57;10.43;;;5.40;90.60;;;;;;5034730;28;20048;-65
2021/12/03 20:39:21;;;;;;;12.15;11.05;;;5.40;90.60;;;;;;5029034;28;20488;-66
2021/12/03 20:42:03;;;;;;;12.80;11.50;;;5.40;90.60;;;;;;5031714;28;20029;-66
2021/12/03 20:52:37;;;;;;;11.93;10.73;;;5.50;90.60;;;;;;5021335;28;20034;-69
2021/12/03 21:08:43;;;;;;;14.30;13.00;;;5.50;90.60;;;;;;5032124;28;20083;-68
2021/12/03 21:11:19;;;;;;;13.15;12.00;;;5.40;90.60;;;;;;5041115;28;20516;-68
2021/12/03 21:13:46;;;;;;;13.10;11.90;;;5.50;90.60;;;;;;5036746;28;20033;-69